Agana Heights, GU (96910)

8:42 AM ChST on February 11, 2016 (GMT +1000)
Maite | | Change Station
CLOSE
Current Station
Personal Weather Station
Location: Maite, GU
Elevation: 140 ft
Nearby Weather Stations

Elev 140 ft 13.48 °N, 144.76 °E | Updated 20 seconds ago

Partly Cloudy
Partly Cloudy
80.1 °F
Feels Like 84 °F
N
11.0
Wind Variable Wind from North
Gusts 19.0 mph

Today
High -- | Low -- °F
--% Chance of Precip.
Yesterday
High -- | Low -- °F
Precip. -- in
Pressure 29.93 in
Visibility 10.0 miles
Clouds Few 2900 ft
Heat Index 84 °F
Dew Point 73 °F
Humidity 80%
Rainfall 0.00 in
Snow Depth Not available.
6:45 AM 6:24 PM
Waxing Crescent, 7% visible
METAR PGUM 102154Z 05009KT 10SM FEW029 26/22 A2995 RMK AO2 SLP135 T02610222 $
Pressure 29.93 in
Visibility 10.0 miles
Clouds Few 2900 ft
Heat Index 84 °F
Dew Point 73 °F
Humidity 80%
Rainfall 0.00 in
Snow Depth Not available.
6:45 AM 6:24 PM
Waxing Crescent, 7% visible
METAR PGUM 102154Z 05009KT 10SM FEW029 26/22 A2995 RMK AO2 SLP135 T02610222 $

10-Day Weather Forecast

Almanac

Astronomy

Feb. 11, 2016 Rise Set
Actual Time
Civil Twilight
Nautical Twilight
Astronomical Twilight
Moon
Length of Visible Light
Length of Day
Tomorrow will be .
, % of the Moon is Illuminated

Today's Extremes

State Highs State Lows

Community

WunderPhotos

Upload Photos

1,891,940 photos uploaded!

WunderBlog® & News

Nearby

Air Quality

  Air Quality AQ Index Pollutant
Not available.

Snow Depth

Station Depth Elevation

Earthquake Activity

City Distance Mag. Time & Date
Minimum magnitude displayed is 2.5.

Coastal Water Temperatures

Place Temperature

Stations

Nearby Weather Stations

Station Location Temp. Windchill Dew Point Humidity Wind Precip. Elev Updated Type
                   

Watches & Warnings

There are currently no watches in effect.